createdAt,value
2018-03-29T00:02:10.364Z,7.40
2018-03-29T00:04:37.957Z,7.40
2018-03-29T00:07:05.554Z,7.30
2018-03-29T00:09:33.952Z,7.30
2018-03-29T00:12:01.544Z,7.30
2018-03-29T00:14:29.160Z,7.40
2018-03-29T00:16:57.625Z,7.40
2018-03-29T00:19:25.210Z,7.40
2018-03-29T00:21:52.832Z,7.40
2018-03-29T00:24:21.924Z,7.40
2018-03-29T00:26:50.304Z,7.40
2018-03-29T00:29:17.917Z,7.40
2018-03-29T00:31:45.512Z,7.40
2018-03-29T00:34:13.142Z,7.40
2018-03-29T00:36:40.741Z,7.40
2018-03-29T00:39:08.792Z,7.40
2018-03-29T00:41:36.448Z,7.40
2018-03-29T00:44:04.044Z,7.40
2018-03-29T00:46:32.805Z,7.40
2018-03-29T00:49:00.416Z,7.40
2018-03-29T00:51:28.763Z,7.40
2018-03-29T00:53:56.398Z,7.40
2018-03-29T00:56:23.981Z,7.50
2018-03-29T00:58:51.600Z,7.40
2018-03-29T01:01:19.189Z,7.40
2018-03-29T01:03:46.768Z,7.40
2018-03-29T01:06:14.404Z,7.50
2018-03-29T01:08:41.990Z,7.50
2018-03-29T01:11:09.611Z,7.40
2018-03-29T01:13:37.200Z,7.40
2018-03-29T01:16:04.824Z,7.40
2018-03-29T01:18:32.408Z,7.40
2018-03-29T01:20:59.991Z,7.50
2018-03-29T01:23:27.610Z,7.50
2018-03-29T01:25:55.192Z,7.50
2018-03-29T01:28:22.807Z,7.50
2018-03-29T01:30:51.156Z,7.50
2018-03-29T01:33:18.745Z,7.40
2018-03-29T01:35:46.359Z,7.50
2018-03-29T01:38:13.953Z,7.50
2018-03-29T01:40:42.328Z,7.50
2018-03-29T01:43:09.924Z,7.50
2018-03-29T01:45:37.548Z,7.50
2018-03-29T01:48:05.136Z,7.50
2018-03-29T01:50:32.717Z,7.50
2018-03-29T01:53:00.327Z,7.50
2018-03-29T01:55:27.911Z,7.50
2018-03-29T01:57:55.536Z,7.50
2018-03-29T02:00:23.120Z,7.50
2018-03-29T02:02:51.488Z,7.50
2018-03-29T02:05:19.876Z,7.50
2018-03-29T02:07:48.265Z,7.50
2018-03-29T02:10:16.603Z,7.50
2018-03-29T02:12:44.217Z,7.40
2018-03-29T02:15:11.810Z,7.50
2018-03-29T02:17:39.421Z,7.50
2018-03-29T02:20:07.772Z,7.50
2018-03-29T02:22:35.392Z,7.40
2018-03-29T02:25:02.978Z,7.50
2018-03-29T02:27:30.568Z,7.50
2018-03-29T02:29:58.180Z,7.50
2018-03-29T02:32:25.771Z,7.50
2018-03-29T02:34:54.899Z,7.40
2018-03-29T02:37:23.249Z,7.40
2018-03-29T02:39:51.609Z,7.40
2018-03-29T02:42:19.229Z,7.30
2018-03-29T02:44:46.820Z,7.40
2018-03-29T02:47:14.408Z,7.40
2018-03-29T02:49:42.026Z,7.40
2018-03-29T02:52:09.608Z,7.30
2018-03-29T02:54:37.204Z,7.30
2018-03-29T02:57:05.587Z,7.30
2018-03-29T02:59:33.977Z,7.30
2018-03-29T03:02:02.333Z,7.30
2018-03-29T03:04:29.916Z,7.20
2018-03-29T03:06:58.305Z,7.30
2018-03-29T03:09:25.889Z,7.20
2018-03-29T03:11:53.502Z,7.30
2018-03-29T03:14:21.864Z,7.20
2018-03-29T03:16:50.988Z,7.10
2018-03-29T03:19:19.339Z,7.20
2018-03-29T03:21:46.963Z,7.20
2018-03-29T03:24:14.540Z,7.20
2018-03-29T03:26:42.124Z,7.20
2018-03-29T03:29:09.734Z,7.20
2018-03-29T03:31:37.327Z,7.10
2018-03-29T03:34:04.949Z,7.10
2018-03-29T03:36:32.536Z,7.10
2018-03-29T03:39:00.124Z,7.10
2018-03-29T03:41:27.744Z,7.10
2018-03-29T03:43:55.332Z,7.10
2018-03-29T03:46:23.716Z,7.10
2018-03-29T03:48:52.080Z,7.10
2018-03-29T03:51:19.704Z,7.00
2018-03-29T03:53:47.288Z,7.10
2018-03-29T03:56:14.915Z,7.10
2018-03-29T03:58:43.272Z,7.00
2018-03-29T04:01:10.857Z,7.00
2018-03-29T04:03:38.472Z,7.00
2018-03-29T04:06:06.057Z,7.00
2018-03-29T04:08:33.672Z,7.00
2018-03-29T04:11:01.260Z,7.00
2018-03-29T04:13:28.853Z,7.00
2018-03-29T04:15:57.236Z,7.00
2018-03-29T04:18:25.592Z,7.00
2018-03-29T04:20:53.212Z,6.90
2018-03-29T04:23:20.800Z,7.00
2018-03-29T04:25:48.379Z,6.90
2018-03-29T04:28:16.759Z,6.90
2018-03-29T04:30:45.112Z,6.90
2018-03-29T04:33:12.728Z,6.80
2018-03-29T04:35:40.312Z,6.90
2018-03-29T04:38:07.939Z,6.90
2018-03-29T04:40:35.529Z,6.80
2018-03-29T04:43:03.112Z,6.80
2018-03-29T04:45:32.230Z,6.70
2018-03-29T04:47:59.824Z,6.70
2018-03-29T04:50:27.436Z,6.80
2018-03-29T04:52:55.024Z,6.70
2018-03-29T04:55:23.410Z,6.70
2018-03-29T04:57:51.755Z,6.60
2018-03-29T05:00:20.261Z,6.60
2018-03-29T05:02:48.638Z,6.60
2018-03-29T05:05:16.992Z,6.60
2018-03-29T05:07:44.612Z,6.50
2018-03-29T05:10:12.197Z,6.60
2018-03-29T05:12:39.780Z,6.60
2018-03-29T05:15:07.392Z,6.60
2018-03-29T05:17:34.979Z,6.60
2018-03-29T05:20:02.607Z,6.60
2018-03-29T05:22:30.189Z,6.60
2018-03-29T05:24:57.808Z,6.60
2018-03-29T05:27:26.158Z,6.60
2018-03-29T05:29:53.763Z,6.50
2018-03-29T05:32:21.345Z,6.60
2018-03-29T05:34:48.959Z,6.60
2018-03-29T05:37:17.335Z,6.60
2018-03-29T05:39:45.717Z,6.60
2018-03-29T05:42:14.099Z,6.50
2018-03-29T05:44:42.522Z,6.50
2018-03-29T05:47:10.132Z,6.40
2018-03-29T05:49:38.511Z,6.50
2018-03-29T05:52:06.901Z,6.40
2018-03-29T05:54:34.501Z,6.40
2018-03-29T05:57:02.126Z,6.50
2018-03-29T05:59:30.480Z,6.40
2018-03-29T06:01:58.069Z,6.40
2018-03-29T06:04:25.685Z,6.40
2018-03-29T06:06:53.280Z,6.40
2018-03-29T06:09:21.672Z,6.40
2018-03-29T06:11:49.252Z,6.30
2018-03-29T06:14:16.832Z,6.40
2018-03-29T06:16:47.305Z,6.40
2018-03-29T06:19:14.900Z,6.40
2018-03-29T06:21:42.513Z,6.40
2018-03-29T06:24:10.092Z,6.40
2018-03-29T06:26:37.700Z,6.40
2018-03-29T06:29:05.298Z,6.40
2018-03-29T06:31:33.695Z,6.40
2018-03-29T06:34:01.289Z,6.40
2018-03-29T06:36:28.879Z,6.40
2018-03-29T06:38:56.484Z,6.40
2018-03-29T06:41:24.068Z,6.40
2018-03-29T06:43:52.061Z,6.30
2018-03-29T06:46:19.707Z,6.30
2018-03-29T06:48:47.327Z,6.30
2018-03-29T06:51:15.696Z,6.30
2018-03-29T06:56:18.076Z,6.20
2018-03-29T06:58:45.701Z,6.30
2018-03-29T07:01:13.280Z,6.30
2018-03-29T07:03:41.636Z,6.30
2018-03-29T07:06:09.262Z,6.20
2018-03-29T07:08:36.849Z,6.30
2018-03-29T07:11:04.464Z,6.30
2018-03-29T07:13:32.820Z,6.30
2018-03-29T07:16:00.443Z,6.20
2018-03-29T07:18:28.036Z,6.30
2018-03-29T07:20:55.657Z,6.30
2018-03-29T07:23:23.252Z,6.40
2018-03-29T07:25:50.872Z,6.30
2018-03-29T07:28:18.456Z,6.30
2018-03-29T07:30:46.049Z,6.30
2018-03-29T07:33:13.672Z,6.30
2018-03-29T07:35:41.981Z,6.30
2018-03-29T07:38:09.595Z,6.30
2018-03-29T07:40:37.197Z,6.30
2018-03-29T07:43:04.817Z,6.30
2018-03-29T07:45:32.413Z,6.30
2018-03-29T07:48:00.021Z,6.30
2018-03-29T07:50:28.405Z,6.30
2018-03-29T07:52:55.997Z,6.20
2018-03-29T07:55:23.627Z,6.30
2018-03-29T07:57:51.346Z,6.30
2018-03-29T08:00:18.964Z,6.30
2018-03-29T08:02:46.551Z,6.30
2018-03-29T08:05:14.170Z,6.30
2018-03-29T08:07:41.756Z,6.30
2018-03-29T08:10:09.363Z,6.30
2018-03-29T08:12:36.952Z,6.30
2018-03-29T08:15:04.590Z,6.30
2018-03-29T08:17:32.963Z,6.30
2018-03-29T08:20:00.554Z,6.30
2018-03-29T08:22:28.168Z,6.30
2018-03-29T08:24:55.772Z,6.30
2018-03-29T08:27:23.452Z,6.40
2018-03-29T08:29:51.778Z,6.40
2018-03-29T08:32:20.160Z,6.40
2018-03-29T08:34:47.744Z,6.40
2018-03-29T08:37:16.178Z,6.50
2018-03-29T08:39:43.775Z,6.40
2018-03-29T08:42:11.397Z,6.50
2018-03-29T08:44:38.987Z,6.50
2018-03-29T08:47:07.339Z,6.50
2018-03-29T08:49:34.949Z,6.50
2018-03-29T08:52:02.541Z,6.50
2018-03-29T08:54:30.352Z,6.50
2018-03-29T08:56:58.700Z,6.60
2018-03-29T08:59:26.288Z,6.50
2018-03-29T09:01:53.901Z,6.60
2018-03-29T09:04:21.491Z,6.60
2018-03-29T09:06:50.617Z,6.60
2018-03-29T09:09:18.980Z,6.60
2018-03-29T09:11:46.587Z,6.60
2018-03-29T09:14:14.470Z,6.60
2018-03-29T09:16:42.464Z,6.60
2018-03-29T09:19:10.841Z,6.60
2018-03-29T09:21:38.436Z,6.60
2018-03-29T09:24:06.810Z,6.70
2018-03-29T09:26:35.166Z,6.70
2018-03-29T09:29:02.923Z,6.70
2018-03-29T09:31:30.516Z,6.70
2018-03-29T09:33:58.866Z,6.70
2018-03-29T09:36:26.476Z,6.60
2018-03-29T09:38:54.587Z,6.70
2018-03-29T09:41:23.963Z,6.70
2018-03-29T09:43:55.449Z,6.70
2018-03-29T09:46:24.226Z,6.70
2018-03-29T09:48:51.816Z,6.70
2018-03-29T09:51:20.253Z,6.80
2018-03-29T09:53:47.861Z,6.80
2018-03-29T09:56:16.215Z,6.80
2018-03-29T09:58:44.059Z,6.80
2018-03-29T10:01:11.649Z,6.80
2018-03-29T10:03:39.237Z,6.80
2018-03-29T10:06:13.394Z,6.80
2018-03-29T10:08:41.009Z,6.80
2018-03-29T10:11:09.359Z,6.90
2018-03-29T10:13:36.943Z,6.80
2018-03-29T10:16:05.328Z,6.90
2018-03-29T10:18:32.913Z,6.80
2018-03-29T10:21:00.529Z,6.90
2018-03-29T10:23:28.120Z,6.90
2018-03-29T10:25:56.504Z,7.00
2018-03-29T10:28:24.108Z,7.00
2018-03-29T10:30:51.724Z,7.00
2018-03-29T10:33:19.321Z,7.00
2018-03-29T10:35:46.945Z,7.00
2018-03-29T10:38:14.536Z,7.00
2018-03-29T10:40:42.119Z,7.00
2018-03-29T10:43:09.728Z,7.00
2018-03-29T10:45:37.317Z,7.00
2018-03-29T10:48:04.942Z,7.00
2018-03-29T10:50:32.557Z,7.00
2018-03-29T10:53:00.141Z,7.00
2018-03-29T10:55:28.531Z,7.00
2018-03-29T10:57:56.889Z,7.10
2018-03-29T11:00:24.520Z,7.00
2018-03-29T11:02:52.111Z,7.10
2018-03-29T11:05:20.464Z,7.20
2018-03-29T11:07:48.084Z,7.10
2018-03-29T11:10:15.682Z,7.20
2018-03-29T11:12:43.293Z,7.20
2018-03-29T11:15:11.654Z,7.30
2018-03-29T11:17:39.283Z,7.20
2018-03-29T11:20:06.938Z,7.30
2018-03-29T11:22:34.538Z,7.30
2018-03-29T11:25:02.307Z,7.40
2018-03-29T11:27:29.888Z,7.40
2018-03-29T11:29:57.503Z,7.40
2018-03-29T11:32:25.088Z,7.50
2018-03-29T11:34:53.444Z,7.70
2018-03-29T11:37:21.065Z,7.60
2018-03-29T11:39:48.656Z,7.80
2018-03-29T11:42:16.285Z,7.90
2018-03-29T11:44:43.868Z,8.00
2018-03-29T11:47:11.452Z,8.00
2018-03-29T11:49:39.372Z,8.10
2018-03-29T11:52:06.964Z,8.10
2018-03-29T11:54:34.576Z,8.20
2018-03-29T11:57:02.187Z,8.30
2018-03-29T11:59:29.804Z,8.30
2018-03-29T12:01:57.400Z,8.40
2018-03-29T12:04:25.112Z,8.50
2018-03-29T12:06:53.469Z,8.60
2018-03-29T12:09:21.054Z,8.60
2018-03-29T12:11:49.428Z,8.70
2018-03-29T12:14:17.784Z,8.80
2018-03-29T12:16:45.412Z,8.70
2018-03-29T12:19:13.080Z,8.80
2018-03-29T12:21:40.672Z,8.80
2018-03-29T12:24:08.280Z,8.90
2018-03-29T12:26:35.861Z,9.00
2018-03-29T12:29:03.476Z,9.00
2018-03-29T12:31:31.065Z,9.00
2018-03-29T12:33:58.662Z,9.10
2018-03-29T12:36:26.285Z,9.10
2018-03-29T12:38:53.886Z,9.20
2018-03-29T12:41:21.499Z,9.20
2018-03-29T12:43:49.096Z,9.30
2018-03-29T12:46:16.678Z,9.40
2018-03-29T12:48:44.295Z,9.40
2018-03-29T12:51:11.879Z,9.40
2018-03-29T12:53:39.500Z,9.40
2018-03-29T12:56:21.973Z,9.40
2018-03-29T12:58:50.365Z,9.50
2018-03-29T13:01:18.725Z,9.60
2018-03-29T13:03:46.312Z,9.50
2018-03-29T13:06:13.928Z,9.60
2018-03-29T13:08:41.576Z,9.70
2018-03-29T13:11:09.169Z,9.80
2018-03-29T13:13:36.752Z,9.90
2018-03-29T13:16:04.368Z,9.90
2018-03-29T13:18:31.961Z,10.00
2018-03-29T13:21:00.359Z,10.10
2018-03-29T13:23:27.949Z,10.00
2018-03-29T13:28:27.352Z,10.10
2018-03-29T13:30:55.000Z,10.10
2018-03-29T13:33:22.594Z,10.10
2018-03-29T13:35:50.240Z,10.10
2018-03-29T13:38:17.837Z,10.10
2018-03-29T13:40:45.451Z,10.10
2018-03-29T13:43:13.039Z,10.20
2018-03-29T13:45:40.655Z,10.30
2018-03-29T13:48:09.013Z,10.40
2018-03-29T13:50:36.636Z,10.30
2018-03-29T13:53:04.225Z,10.40
2018-03-29T13:55:31.816Z,10.50
2018-03-29T13:57:59.431Z,10.50
2018-03-29T14:00:27.023Z,10.60
2018-03-29T14:02:55.412Z,10.70
2018-03-29T14:05:23.768Z,10.70
2018-03-29T14:07:52.158Z,10.80
2018-03-29T14:10:20.504Z,10.80
2018-03-29T14:12:48.107Z,10.70
2018-03-29T14:15:16.494Z,10.90
2018-03-29T14:17:44.104Z,10.80
2018-03-29T14:20:11.725Z,10.90
2018-03-29T14:22:39.410Z,11.00
2018-03-29T14:25:07.032Z,11.00
2018-03-29T14:27:35.392Z,11.00
2018-03-29T14:30:03.864Z,11.10
2018-03-29T14:32:31.417Z,11.00
2018-03-29T14:34:59.006Z,11.10
2018-03-29T14:37:26.647Z,11.10
2018-03-29T14:39:55.056Z,11.10
2018-03-29T14:42:22.692Z,11.10
2018-03-29T14:44:51.068Z,11.10
2018-03-29T14:47:18.649Z,11.10
2018-03-29T14:49:47.035Z,11.20
2018-03-29T14:52:14.620Z,11.10
2018-03-29T14:54:42.248Z,11.10
2018-03-29T14:57:10.612Z,11.10
2018-03-29T14:59:38.209Z,11.00
2018-03-29T15:02:05.828Z,11.10
2018-03-29T15:04:33.427Z,11.00
2018-03-29T15:07:01.045Z,11.00
2018-03-29T15:09:28.631Z,11.00
2018-03-29T15:11:57.026Z,11.00
2018-03-29T15:14:24.629Z,11.00
2018-03-29T15:16:52.216Z,11.00
2018-03-29T15:19:20.604Z,11.00
2018-03-29T15:21:48.987Z,11.00
2018-03-29T15:24:17.378Z,11.00
2018-03-29T15:26:47.174Z,10.90
2018-03-29T15:29:14.911Z,10.90
2018-03-29T15:31:42.648Z,10.90
2018-03-29T15:34:10.314Z,10.90
2018-03-29T15:36:37.984Z,10.80
2018-03-29T15:39:05.851Z,10.80
2018-03-29T15:41:33.724Z,10.80
2018-03-29T15:44:01.587Z,10.80
2018-03-29T15:46:29.460Z,10.90
2018-03-29T15:48:57.321Z,10.90
2018-03-29T15:51:25.186Z,10.80
2018-03-29T15:53:53.060Z,10.90
2018-03-29T15:56:20.869Z,10.90
2018-03-29T15:58:48.689Z,10.90
2018-03-29T16:01:16.556Z,10.90
2018-03-29T16:03:44.423Z,10.90
2018-03-29T16:06:12.293Z,10.90
2018-03-29T16:08:40.108Z,11.00
2018-03-29T16:11:08.025Z,10.90
2018-03-29T16:13:35.621Z,10.90
2018-03-29T16:16:04.004Z,10.90
2018-03-29T16:18:32.360Z,10.90
2018-03-29T16:20:59.993Z,10.90
2018-03-29T16:23:27.593Z,10.90
2018-03-29T16:25:55.957Z,10.90
2018-03-29T16:28:24.340Z,10.90
2018-03-29T16:30:51.954Z,10.80
2018-03-29T16:33:19.574Z,10.90
2018-03-29T16:35:47.932Z,10.80
2018-03-29T16:38:15.567Z,10.80
2018-03-29T16:40:43.158Z,10.70
2018-03-29T16:43:10.784Z,10.70
2018-03-29T16:45:38.379Z,10.70
2018-03-29T16:48:06.009Z,10.70
2018-03-29T16:50:33.606Z,10.70
2018-03-29T16:53:01.200Z,10.70
2018-03-29T16:55:28.823Z,10.70
2018-03-29T16:57:56.416Z,10.70
2018-03-29T17:00:24.037Z,10.70
2018-03-29T17:02:51.629Z,10.60
2018-03-29T17:05:20.012Z,10.50
2018-03-29T17:07:47.629Z,10.50
2018-03-29T17:10:15.381Z,10.50
2018-03-29T17:12:42.976Z,10.50
2018-03-29T17:15:10.572Z,10.50
2018-03-29T17:17:38.187Z,10.50
2018-03-29T17:20:05.780Z,10.50
2018-03-29T17:22:33.420Z,10.40
2018-03-29T17:25:01.781Z,10.40
2018-03-29T17:27:29.386Z,10.30
2018-03-29T17:29:57.007Z,10.30
2018-03-29T17:32:24.604Z,10.30
2018-03-29T17:34:52.220Z,10.20
2018-03-29T17:37:19.804Z,10.20
2018-03-29T17:39:48.183Z,10.20
2018-03-29T17:42:16.536Z,10.20
2018-03-29T17:44:44.156Z,10.10
2018-03-29T17:47:11.742Z,10.20
2018-03-29T17:49:39.337Z,10.20
2018-03-29T17:52:07.716Z,10.10
2018-03-29T17:54:35.311Z,10.10
2018-03-29T17:57:02.963Z,10.10
2018-03-29T17:59:30.585Z,10.10
2018-03-29T18:01:58.208Z,10.10
2018-03-29T18:04:25.792Z,10.00
2018-03-29T18:06:53.662Z,10.00
2018-03-29T18:09:21.552Z,10.00
2018-03-29T18:11:50.108Z,10.00
2018-03-29T18:14:17.702Z,10.00
2018-03-29T18:16:46.072Z,10.00
2018-03-29T18:19:13.687Z,9.90
2018-03-29T18:21:41.328Z,9.90
2018-03-29T18:24:09.052Z,9.90
2018-03-29T18:26:36.641Z,9.90
2018-03-29T18:29:05.282Z,9.80
2018-03-29T18:31:33.050Z,9.70
2018-03-29T18:34:00.916Z,9.80
2018-03-29T18:36:28.528Z,9.70
2018-03-29T18:38:56.120Z,9.70
2018-03-29T18:41:23.749Z,9.60
2018-03-29T18:43:51.390Z,9.60
2018-03-29T18:46:19.780Z,9.50
2018-03-29T18:48:48.149Z,9.50
2018-03-29T18:51:16.578Z,9.50
2018-03-29T18:53:44.199Z,9.50
2018-03-29T18:56:12.556Z,9.50
2018-03-29T18:58:40.205Z,9.40
2018-03-29T19:01:07.795Z,9.40
2018-03-29T19:03:36.194Z,9.40
2018-03-29T19:06:03.791Z,9.30
2018-03-29T19:08:31.383Z,9.40
2018-03-29T19:10:59.763Z,9.30
2018-03-29T19:13:28.121Z,9.20
2018-03-29T19:15:55.736Z,9.20
2018-03-29T19:18:23.321Z,9.20
2018-03-29T19:20:50.953Z,9.20
2018-03-29T19:23:18.548Z,9.20
2018-03-29T19:25:46.136Z,9.20
2018-03-29T19:28:13.749Z,9.20
2018-03-29T19:30:41.344Z,9.20
2018-03-29T19:33:08.968Z,9.20
2018-03-29T19:35:36.563Z,9.10
2018-03-29T19:38:04.246Z,9.10
2018-03-29T19:40:31.839Z,9.10
2018-03-29T19:42:59.440Z,9.00
2018-03-29T19:45:27.063Z,9.00
2018-03-29T19:47:54.852Z,9.00
2018-03-29T19:50:22.480Z,9.00
2018-03-29T19:52:50.091Z,9.00
2018-03-29T19:55:17.690Z,8.90
2018-03-29T20:00:19.928Z,8.80
2018-03-29T20:02:47.546Z,8.80
2018-03-29T20:05:15.145Z,8.80
2018-03-29T20:07:42.796Z,8.80
2018-03-29T20:10:10.973Z,8.70
2018-03-29T20:12:38.608Z,8.70
2018-03-29T20:15:06.227Z,8.70
2018-03-29T20:17:33.826Z,8.60
2018-03-29T20:20:01.523Z,8.60
2018-03-29T20:22:29.135Z,8.50
2018-03-29T20:24:57.546Z,8.50
2018-03-29T20:27:25.145Z,8.40
2018-03-29T20:29:52.750Z,8.40
2018-03-29T20:32:20.429Z,8.40
2018-03-29T20:34:48.762Z,8.30
2018-03-29T20:37:16.388Z,8.30
2018-03-29T20:39:43.984Z,8.30
2018-03-29T20:42:11.607Z,8.30
2018-03-29T20:44:39.199Z,8.30
2018-03-29T20:47:06.828Z,8.30
2018-03-29T20:49:34.460Z,8.20
2018-03-29T20:52:02.048Z,8.20
2018-03-29T20:54:29.673Z,8.10
2018-03-29T20:56:58.036Z,8.00
2018-03-29T20:59:28.875Z,8.00
2018-03-29T21:01:56.871Z,7.90
2018-03-29T21:04:24.682Z,8.00
2018-03-29T21:06:52.313Z,8.00
2018-03-29T21:09:20.205Z,7.90
2018-03-29T21:11:48.064Z,8.00
2018-03-29T21:14:15.828Z,8.00
2018-03-29T21:16:43.907Z,7.90
2018-03-29T21:19:11.722Z,7.90
2018-03-29T21:21:39.530Z,7.90
2018-03-29T21:24:07.406Z,7.90
2018-03-29T21:26:35.265Z,7.90
2018-03-29T21:29:03.183Z,7.90
2018-03-29T21:31:31.829Z,7.80
2018-03-29T21:33:59.693Z,7.70
2018-03-29T21:36:27.548Z,7.80
2018-03-29T21:38:55.419Z,7.80
2018-03-29T21:41:23.003Z,7.70
2018-03-29T21:43:51.360Z,7.70
2018-03-29T21:46:18.984Z,7.60
2018-03-29T21:48:46.571Z,7.70
2018-03-29T21:51:14.198Z,7.70
2018-03-29T21:53:41.792Z,7.60
2018-03-29T21:56:09.967Z,7.60
2018-03-29T21:58:38.343Z,7.60
2018-03-29T22:01:07.332Z,7.60
2018-03-29T22:03:35.135Z,7.50
2018-03-29T22:06:02.800Z,7.50
2018-03-29T22:08:30.397Z,7.50
2018-03-29T22:10:58.020Z,7.50
2018-03-29T22:13:25.866Z,7.50
2018-03-29T22:15:53.457Z,7.50
2018-03-29T22:18:21.831Z,7.50
2018-03-29T22:20:51.004Z,7.50
2018-03-29T22:23:18.627Z,7.50
2018-03-29T22:25:46.778Z,7.50
2018-03-29T22:28:15.136Z,7.50
2018-03-29T22:30:42.760Z,7.40
2018-03-29T22:33:10.847Z,7.50
2018-03-29T22:35:39.377Z,7.50
2018-03-29T22:38:07.732Z,7.50
2018-03-29T22:40:35.458Z,7.40
2018-03-29T22:43:03.892Z,7.40
2018-03-29T22:45:32.251Z,7.40
2018-03-29T22:47:59.869Z,7.30
2018-03-29T22:50:27.463Z,7.40
2018-03-29T22:52:55.127Z,7.30
2018-03-29T22:55:22.725Z,7.30
2018-03-29T22:57:50.687Z,7.30
2018-03-29T23:00:27.931Z,7.20
2018-03-29T23:02:55.526Z,7.20
2018-03-29T23:05:23.910Z,7.10
2018-03-29T23:07:52.275Z,7.10
2018-03-29T23:10:20.687Z,7.10
2018-03-29T23:12:48.290Z,7.00
2018-03-29T23:15:15.888Z,7.10
2018-03-29T23:17:44.276Z,7.00
2018-03-29T23:20:11.874Z,7.00
2018-03-29T23:22:39.501Z,7.00
2018-03-29T23:25:07.092Z,7.00
2018-03-29T23:27:34.679Z,7.00
2018-03-29T23:30:02.505Z,7.00
2018-03-29T23:32:30.485Z,7.00
2018-03-29T23:34:58.156Z,7.00
2018-03-29T23:37:26.221Z,6.90
2018-03-29T23:39:53.827Z,6.90
2018-03-29T23:42:22.464Z,6.90
2018-03-29T23:44:50.068Z,6.80
2018-03-29T23:47:17.689Z,6.80
2018-03-29T23:49:45.272Z,6.80
2018-03-29T23:52:14.401Z,6.70
2018-03-29T23:54:42.764Z,6.80
2018-03-29T23:57:10.388Z,6.70
2018-03-29T23:59:37.972Z,6.80
